Gaylord, MI

11:25 PM EDT on August 03, 2015 (GMT -0400)
National Weather Service | | Change Station
CLOSE
Current Station
Personal Weather Station
Location: Gaylord, MI
Elevation: 1465 ft
Nearby Weather Stations

Elev 1465 ft 44.91 °N, 84.72 °W | Updated 38 seconds ago

Clear
Clear
55.8 °F
Feels Like 55.8 °F
N
0.0
Wind Variable Wind from WSW
Gusts 1.0 mph

Today
High -- | Low -- °F
--% Chance of Precip.
Yesterday
High -- | Low -- °F
Precip. -- in
6:26 AM 9:02 PM
Waning Gibbous, 81% visible
Pressure 29.84 in
Visibility 10.0 miles
Clouds Clear
Dew Point 54 °F
Humidity 95%
Rainfall 0.00 in
Snow Depth Not available.
UV 0.0 out of 12
Pollen 5.60 out of 12
Air Quality Not available.
Flu Activity Not available.
METAR KGLR 040253Z AUTO 00000KT 10SM CLR 14/14 A2985 RMK AO2 SLP105 60000 T01440144 53010

More Conditions Fewer Conditions

Pressure 29.84 in
Visibility 10.0 miles
Clouds Clear
Dew Point 54 °F
Humidity 95%
Rainfall 0.00 in
Snow Depth Not available.
UV 0.0 out of 12
Pollen 5.60 out of 12
Air Quality Not available.
Flu Activity Not available.
METAR KGLR 040253Z AUTO 00000KT 10SM CLR 14/14 A2985 RMK AO2 SLP105 60000 T01440144 53010

More Conditions Fewer Conditions

Nowcast | as of 11:00 PM EDT on August 3, 2015

At 12 am...mostly cloudy. Chance of showers. Temperature 56. Light winds. At 2 am...partly cloudy. Chance of showers. Temperature 54. Light winds. At 4 am...mostly cloudy. Chance of showers. Temperature 52. Light winds. At 6 am...mostly cloudy. Chance of showers. Temperature 52. Light winds.

×

10-Day Weather Forecast

×

Almanac

Astronomy

Aug. 03, 2015 Rise Set
Actual Time
Civil Twilight
Nautical Twilight
Astronomical Twilight
Moon
Length of Visible Light
Length of Day
Tomorrow will be .
, % of the Moon is Illuminated

Today's Extremes

State Highs State Lows

Community

WunderPhotos

Upload Photos

1,843,838 photos uploaded!

WunderBlogs® & News

Nearby

Air Quality

  Air Quality AQ Index Pollutant
Not available.

Snow Depth

Station Depth Elevation

Earthquake Activity

City Distance Mag. Time & Date
Minimum magnitude displayed is 2.5.

Coastal Water Temperatures

Place Temperature

Stations

Nearby Weather Stations

Station Location Temp. Windchill Dew Point Humidity Wind Precip. Elev Updated Type